createdAt,value
2018-12-05T00:00:20.818Z,76.87
2018-12-05T00:00:55.506Z,76.84
2018-12-05T00:01:30.433Z,77.74
2018-12-05T00:02:05.014Z,77.23
2018-12-05T00:02:39.632Z,76.98
2018-12-05T00:03:14.687Z,76.81
2018-12-05T00:03:49.313Z,77.40
2018-12-05T00:04:24.030Z,77.29
2018-12-05T00:04:58.730Z,77.21
2018-12-05T00:05:33.296Z,77.89
2018-12-05T00:06:07.944Z,77.55
2018-12-05T00:06:42.536Z,77.07
2018-12-05T00:07:17.123Z,76.97
2018-12-05T00:07:52.273Z,77.31
2018-12-05T00:08:26.946Z,77.94
2018-12-05T00:09:01.497Z,76.93
2018-12-05T00:09:36.094Z,77.83
2018-12-05T00:10:10.369Z,77.04
2018-12-05T00:10:44.941Z,76.90
2018-12-05T00:11:20.041Z,76.37
2018-12-05T00:11:54.698Z,76.25
2018-12-05T00:12:29.266Z,77.23
2018-12-05T00:13:04.459Z,76.69
2018-12-05T00:13:39.021Z,75.83
2018-12-05T00:14:13.988Z,76.50
2018-12-05T00:14:48.620Z,76.69
2018-12-05T00:15:23.241Z,76.62
2018-12-05T00:15:57.904Z,76.17
2018-12-05T00:16:32.453Z,77.44
2018-12-05T00:17:07.520Z,77.05
2018-12-05T00:17:42.098Z,76.85
2018-12-05T00:18:16.679Z,76.49
2018-12-05T00:18:51.374Z,77.61
2018-12-05T00:19:26.010Z,76.67
2018-12-05T00:20:00.607Z,77.84
2018-12-05T00:20:35.227Z,76.88
2018-12-05T00:21:09.850Z,76.98
2018-12-05T00:21:44.565Z,77.05
2018-12-05T00:22:19.650Z,77.67
2018-12-05T00:22:54.244Z,77.82
2018-12-05T00:23:28.875Z,77.48
2018-12-05T00:24:03.440Z,77.68
2018-12-05T00:24:38.076Z,76.76
2018-12-05T00:25:13.203Z,77.26
2018-12-05T00:25:47.810Z,77.07
2018-12-05T00:26:22.528Z,77.24
2018-12-05T00:26:57.144Z,76.51
2018-12-05T00:27:31.725Z,77.49
2018-12-05T00:28:06.320Z,76.69
2018-12-05T00:28:40.964Z,77.16
2018-12-05T00:29:15.518Z,76.79
2018-12-05T00:29:50.107Z,76.45
2018-12-05T00:30:25.338Z,77.00
2018-12-05T00:30:59.897Z,77.06
2018-12-05T00:31:34.452Z,77.30
2018-12-05T00:32:09.029Z,76.72
2018-12-05T00:32:43.594Z,76.44
2018-12-05T00:33:18.186Z,77.62
2018-12-05T00:33:52.929Z,77.67
2018-12-05T00:34:27.557Z,76.32
2018-12-05T00:35:02.536Z,76.32
2018-12-05T00:35:37.173Z,77.05
2018-12-05T00:36:12.140Z,76.77
2018-12-05T00:36:46.701Z,76.84
2018-12-05T00:37:21.387Z,76.28
2018-12-05T00:37:56.068Z,76.32
2018-12-05T00:38:30.650Z,76.68
2018-12-05T00:39:08.802Z,76.24
2018-12-05T00:39:43.378Z,76.79
2018-12-05T00:40:18.515Z,76.02
2018-12-05T00:40:53.575Z,76.95
2018-12-05T00:41:28.172Z,75.93
2018-12-05T00:42:02.816Z,75.50
2018-12-05T00:42:37.394Z,75.88
2018-12-05T00:43:12.072Z,76.20
2018-12-05T00:43:46.641Z,75.83
2018-12-05T00:44:21.261Z,76.62
2018-12-05T00:44:56.274Z,75.68
2018-12-05T00:45:30.971Z,75.13
2018-12-05T00:46:05.585Z,75.16
2018-12-05T00:46:40.318Z,75.04
2018-12-05T00:47:14.946Z,75.02
2018-12-05T00:47:49.598Z,75.80
2018-12-05T00:48:24.246Z,75.12
2018-12-05T00:48:58.933Z,75.22
2018-12-05T00:49:33.558Z,74.82
2018-12-05T00:50:08.769Z,76.14
2018-12-05T00:50:43.421Z,75.64
2018-12-05T00:51:18.099Z,74.66
2018-12-05T00:51:52.862Z,74.35
2018-12-05T00:52:27.645Z,74.57
2018-12-05T00:53:02.372Z,73.97
2018-12-05T00:53:37.089Z,74.16
2018-12-05T00:54:11.900Z,75.34
2018-12-05T00:54:46.598Z,74.89
2018-12-05T00:55:21.854Z,74.48
2018-12-05T00:55:56.597Z,74.47
2018-12-05T00:56:31.266Z,74.87
2018-12-05T00:57:05.993Z,75.30
2018-12-05T00:57:47.010Z,75.48
2018-12-05T00:58:21.825Z,74.26
2018-12-05T00:58:56.492Z,74.76
2018-12-05T00:59:31.213Z,74.47
2018-12-05T01:00:08.031Z,74.37
2018-12-05T01:00:43.156Z,74.01
2018-12-05T01:01:17.837Z,74.60
2018-12-05T01:01:52.733Z,74.12
2018-12-05T01:02:27.699Z,74.98
2018-12-05T01:03:02.354Z,74.96
2018-12-05T01:03:36.962Z,74.73
2018-12-05T01:04:11.705Z,75.37
2018-12-05T01:04:46.313Z,74.69
2018-12-05T01:05:20.986Z,74.54
2018-12-05T01:05:55.840Z,74.82
2018-12-05T01:06:30.922Z,74.49
2018-12-05T01:07:06.458Z,75.03
2018-12-05T01:07:41.122Z,74.98
2018-12-05T01:08:15.749Z,74.89
2018-12-05T01:08:50.421Z,75.28
2018-12-05T01:09:25.087Z,74.28
2018-12-05T01:09:59.763Z,74.26
2018-12-05T01:10:34.417Z,74.29
2018-12-05T01:11:09.041Z,74.78
2018-12-05T01:11:43.711Z,74.67
2018-12-05T01:12:18.339Z,74.53
2018-12-05T01:12:52.974Z,74.48
2018-12-05T01:13:27.593Z,74.81
2018-12-05T01:14:02.277Z,74.52
2018-12-05T01:14:37.012Z,75.23
2018-12-05T01:15:11.643Z,75.12
2018-12-05T01:15:46.366Z,74.89
2018-12-05T01:16:21.583Z,75.20
2018-12-05T01:16:56.314Z,74.59
2018-12-05T01:17:30.997Z,75.65
2018-12-05T01:18:05.997Z,75.06
2018-12-05T01:18:41.055Z,75.60
2018-12-05T01:19:15.774Z,75.31
2018-12-05T01:19:52.573Z,75.02
2018-12-05T01:20:27.186Z,74.54
2018-12-05T01:21:01.838Z,74.80
2018-12-05T01:21:36.586Z,74.88
2018-12-05T01:22:11.219Z,74.34
2018-12-05T01:22:45.858Z,74.95
2018-12-05T01:23:20.557Z,75.42
2018-12-05T01:23:55.193Z,75.53
2018-12-05T01:24:29.806Z,74.78
2018-12-05T01:25:05.927Z,75.20
2018-12-05T01:25:40.553Z,75.15
2018-12-05T01:26:15.275Z,74.36
2018-12-05T01:26:50.234Z,75.46
2018-12-05T01:27:24.947Z,75.02
2018-12-05T01:27:59.555Z,75.46
2018-12-05T01:28:34.239Z,75.45
2018-12-05T01:29:08.917Z,75.38
2018-12-05T01:29:43.546Z,75.58
2018-12-05T01:30:18.156Z,74.71
2018-12-05T01:30:52.789Z,75.19
2018-12-05T01:31:27.415Z,75.24
2018-12-05T01:32:02.038Z,75.73
2018-12-05T01:32:36.648Z,75.04
2018-12-05T01:33:11.278Z,75.84
2018-12-05T01:33:45.958Z,75.27
2018-12-05T01:34:21.260Z,75.50
2018-12-05T01:34:55.926Z,76.01
2018-12-05T01:35:30.548Z,76.15
2018-12-05T01:36:05.232Z,75.28
2018-12-05T01:36:39.861Z,75.38
2018-12-05T01:37:14.477Z,75.54
2018-12-05T01:37:49.134Z,74.71
2018-12-05T01:38:24.133Z,75.67
2018-12-05T01:38:58.807Z,75.40
2018-12-05T01:39:33.438Z,75.75
2018-12-05T01:40:08.560Z,74.65
2018-12-05T01:40:43.186Z,75.73
2018-12-05T01:41:19.019Z,75.83
2018-12-05T01:41:53.765Z,75.39
2018-12-05T01:42:28.425Z,74.97
2018-12-05T01:43:03.045Z,74.66
2018-12-05T01:43:43.094Z,74.66
2018-12-05T01:44:18.166Z,75.03
2018-12-05T01:44:57.123Z,75.08
2018-12-05T01:45:31.734Z,75.46
2018-12-05T01:46:06.350Z,75.13
2018-12-05T01:46:41.491Z,75.10
2018-12-05T01:47:16.225Z,74.69
2018-12-05T01:47:50.899Z,75.22
2018-12-05T01:48:25.626Z,74.78
2018-12-05T01:49:01.249Z,74.62
2018-12-05T01:49:35.844Z,74.76
2018-12-05T01:50:10.995Z,74.86
2018-12-05T01:50:45.647Z,74.74
2018-12-05T01:51:20.310Z,74.89
2018-12-05T01:51:54.961Z,74.94
2018-12-05T01:52:29.574Z,74.35
2018-12-05T01:53:04.214Z,75.05
2018-12-05T01:53:39.442Z,75.51
2018-12-05T01:54:14.157Z,75.24
2018-12-05T01:54:48.870Z,74.89
2018-12-05T01:55:23.751Z,75.15
2018-12-05T01:55:58.394Z,75.00
2018-12-05T01:56:33.513Z,74.44
2018-12-05T01:57:08.250Z,74.90
2018-12-05T01:57:42.846Z,75.92
2018-12-05T01:58:17.460Z,74.80
2018-12-05T01:58:52.274Z,75.46
2018-12-05T01:59:27.363Z,75.14
2018-12-05T02:00:02.030Z,74.80
2018-12-05T02:00:37.126Z,75.50
2018-12-05T02:01:12.224Z,76.11
2018-12-05T02:01:46.938Z,75.48
2018-12-05T02:02:21.760Z,75.03
2018-12-05T02:02:56.434Z,74.78
2018-12-05T02:03:31.417Z,74.56
2018-12-05T02:04:06.469Z,73.97
2018-12-05T02:04:41.105Z,74.23
2018-12-05T02:05:15.863Z,74.34
2018-12-05T02:05:50.547Z,75.22
2018-12-05T02:06:25.329Z,74.98
2018-12-05T02:07:00.109Z,74.92
2018-12-05T02:07:34.804Z,75.21
2018-12-05T02:08:09.473Z,75.25
2018-12-05T02:08:44.178Z,75.17
2018-12-05T02:09:19.054Z,75.10
2018-12-05T02:09:54.279Z,74.63
2018-12-05T02:10:28.924Z,75.10
2018-12-05T02:11:04.075Z,74.33
2018-12-05T02:11:38.796Z,74.39
2018-12-05T02:12:14.058Z,74.80
2018-12-05T02:12:48.705Z,75.19
2018-12-05T02:13:23.563Z,74.46
2018-12-05T02:13:58.205Z,74.31
2018-12-05T02:14:32.991Z,74.14
2018-12-05T02:15:08.118Z,74.67
2018-12-05T02:15:42.757Z,74.38
2018-12-05T02:16:17.590Z,74.50
2018-12-05T02:16:52.389Z,74.08
2018-12-05T02:17:26.996Z,74.01
2018-12-05T02:18:01.642Z,74.23
2018-12-05T02:18:36.227Z,73.94
2018-12-05T02:19:11.350Z,73.14
2018-12-05T02:19:45.946Z,73.96
2018-12-05T02:20:20.657Z,74.61
2018-12-05T02:20:56.626Z,74.25
2018-12-05T02:21:31.228Z,74.80
2018-12-05T02:22:06.220Z,74.91
2018-12-05T02:22:40.813Z,74.57
2018-12-05T02:23:15.513Z,74.37
2018-12-05T02:23:50.196Z,75.10
2018-12-05T02:24:24.843Z,75.12
2018-12-05T02:24:59.465Z,74.63
2018-12-05T02:25:34.085Z,74.47
2018-12-05T02:26:08.677Z,74.21
2018-12-05T02:26:43.281Z,74.56
2018-12-05T02:27:17.915Z,74.18
2018-12-05T02:27:52.772Z,74.55
2018-12-05T02:28:27.366Z,74.12
2018-12-05T02:29:02.081Z,75.20
2018-12-05T02:29:42.163Z,74.81
2018-12-05T02:30:16.785Z,75.48
2018-12-05T02:30:51.509Z,75.38
2018-12-05T02:31:26.936Z,74.43
2018-12-05T02:32:01.603Z,74.85
2018-12-05T02:32:36.207Z,75.55
2018-12-05T02:33:10.817Z,74.86
2018-12-05T02:33:45.554Z,75.02
2018-12-05T02:34:20.400Z,74.52
2018-12-05T02:34:55.785Z,75.48
2018-12-05T02:35:30.386Z,75.20
2018-12-05T02:36:04.983Z,75.05
2018-12-05T02:36:39.582Z,75.35
2018-12-05T02:37:14.225Z,74.75
2018-12-05T02:37:49.137Z,75.55
2018-12-05T02:38:23.814Z,75.39
2018-12-05T02:38:58.450Z,74.95
2018-12-05T02:39:33.140Z,75.54
2018-12-05T02:40:08.742Z,74.85
2018-12-05T02:40:43.344Z,75.16
2018-12-05T02:41:18.433Z,74.47
2018-12-05T02:41:53.284Z,73.88
2018-12-05T02:42:27.948Z,74.74
2018-12-05T02:43:02.512Z,74.55
2018-12-05T02:43:37.125Z,74.05
2018-12-05T02:44:11.722Z,74.37
2018-12-05T02:44:46.385Z,73.90
2018-12-05T02:45:24.239Z,74.17
2018-12-05T02:45:58.920Z,74.11
2018-12-05T02:46:33.623Z,75.11
2018-12-05T02:47:08.257Z,74.56
2018-12-05T02:47:43.307Z,73.74
2018-12-05T02:48:18.188Z,74.44
2018-12-05T02:48:52.908Z,74.45
2018-12-05T02:49:27.952Z,74.55
2018-12-05T02:50:03.128Z,73.99
2018-12-05T02:50:37.763Z,74.05
2018-12-05T02:51:12.373Z,73.38
2018-12-05T02:51:46.988Z,73.68
2018-12-05T02:52:21.634Z,74.03
2018-12-05T02:52:56.294Z,74.66
2018-12-05T02:53:30.934Z,74.26
2018-12-05T02:54:05.631Z,74.25
2018-12-05T02:54:40.472Z,74.13
2018-12-05T02:55:15.390Z,74.68
2018-12-05T02:55:49.986Z,74.23
2018-12-05T02:56:24.624Z,73.92
2018-12-05T02:56:59.248Z,74.20
2018-12-05T02:57:33.992Z,74.81
2018-12-05T02:58:08.584Z,74.67
2018-12-05T02:58:43.186Z,74.33
2018-12-05T02:59:17.800Z,74.35
2018-12-05T02:59:52.499Z,74.67
2018-12-05T03:00:27.701Z,74.29
2018-12-05T03:01:02.352Z,74.18
2018-12-05T03:01:36.982Z,75.23
2018-12-05T03:02:11.950Z,74.60
2018-12-05T03:02:46.568Z,74.52
2018-12-05T03:03:21.546Z,74.34
2018-12-05T03:03:56.283Z,74.09
2018-12-05T03:04:30.905Z,74.50
2018-12-05T03:05:07.997Z,74.94
2018-12-05T03:05:43.078Z,75.36
2018-12-05T03:06:17.854Z,74.82
2018-12-05T03:06:53.697Z,75.15
2018-12-05T03:07:28.422Z,75.75
2018-12-05T03:08:03.856Z,75.94
2018-12-05T03:08:38.481Z,76.47
2018-12-05T03:09:13.076Z,75.93
2018-12-05T03:09:47.693Z,75.54
2018-12-05T03:10:23.384Z,76.43
2018-12-05T03:10:58.156Z,75.46
2018-12-05T03:11:32.782Z,75.48
2018-12-05T03:12:07.359Z,75.69
2018-12-05T03:12:42.036Z,75.75
2018-12-05T03:13:16.649Z,75.98
2018-12-05T03:13:51.517Z,76.19
2018-12-05T03:14:26.176Z,76.42
2018-12-05T03:15:00.882Z,76.95
2018-12-05T03:15:36.419Z,77.08
2018-12-05T03:16:11.422Z,76.23
2018-12-05T03:16:46.093Z,76.39
2018-12-05T03:17:20.728Z,76.56
2018-12-05T03:17:55.474Z,76.69
2018-12-05T03:18:30.209Z,77.56
2018-12-05T03:19:05.724Z,76.66
2018-12-05T03:19:40.496Z,77.04
2018-12-05T03:20:15.093Z,77.82
2018-12-05T03:20:49.697Z,77.17
2018-12-05T03:21:24.376Z,76.13
2018-12-05T03:21:59.044Z,77.40
2018-12-05T03:22:33.712Z,76.77
2018-12-05T03:23:08.364Z,76.76
2018-12-05T03:23:42.964Z,77.30
2018-12-05T03:24:17.586Z,77.23
2018-12-05T03:24:52.667Z,77.34
2018-12-05T03:25:27.457Z,77.41
2018-12-05T03:26:02.653Z,77.80
2018-12-05T03:26:38.001Z,78.20
2018-12-05T03:27:12.709Z,77.61
2018-12-05T03:27:47.382Z,77.80
2018-12-05T03:28:22.214Z,77.56
2018-12-05T03:28:56.911Z,77.76
2018-12-05T03:29:31.569Z,77.90
2018-12-05T03:30:06.902Z,77.75
2018-12-05T03:30:41.527Z,78.51
2018-12-05T03:31:16.182Z,78.24
2018-12-05T03:31:51.076Z,78.04
2018-12-05T03:32:25.823Z,78.23
2018-12-05T03:33:00.474Z,77.91
2018-12-05T03:33:35.118Z,77.64
2018-12-05T03:34:09.748Z,77.62
2018-12-05T03:34:44.455Z,77.93
2018-12-05T03:35:23.264Z,78.02
2018-12-05T03:35:57.913Z,77.12
2018-12-05T03:36:32.591Z,77.89
2018-12-05T03:37:07.460Z,78.69
2018-12-05T03:37:42.145Z,77.57
2018-12-05T03:38:16.781Z,78.66
2018-12-05T03:38:51.887Z,77.54
2018-12-05T03:39:26.538Z,78.79
2018-12-05T03:40:01.156Z,78.76
2018-12-05T03:40:36.904Z,77.55
2018-12-05T03:41:11.516Z,77.43
2018-12-05T03:41:46.113Z,77.61
2018-12-05T03:42:21.329Z,78.44
2018-12-05T03:42:56.045Z,77.78
2018-12-05T03:43:30.842Z,77.91
2018-12-05T03:44:06.148Z,78.43
2018-12-05T03:44:40.774Z,78.51
2018-12-05T03:45:15.855Z,78.78
2018-12-05T03:45:50.468Z,77.91
2018-12-05T03:46:25.117Z,78.32
2018-12-05T03:46:59.726Z,78.71
2018-12-05T03:47:34.445Z,78.21
2018-12-05T03:48:09.078Z,79.08
2018-12-05T03:48:44.164Z,79.06
2018-12-05T03:49:18.821Z,78.97
2018-12-05T03:49:58.701Z,78.75
2018-12-05T03:50:33.319Z,77.92
2018-12-05T03:51:08.104Z,78.94
2018-12-05T03:51:42.893Z,78.81
2018-12-05T03:52:17.819Z,78.54
2018-12-05T03:52:53.004Z,78.76
2018-12-05T03:53:27.738Z,78.80
2018-12-05T03:54:02.384Z,78.37
2018-12-05T03:54:37.042Z,78.32
2018-12-05T03:55:12.190Z,78.10
2018-12-05T03:55:46.807Z,77.83
2018-12-05T03:56:21.828Z,78.35
2018-12-05T03:56:56.534Z,77.08
2018-12-05T03:57:31.406Z,77.75
2018-12-05T03:58:06.075Z,78.21
2018-12-05T03:58:41.163Z,77.87
2018-12-05T03:59:15.862Z,77.10
2018-12-05T03:59:50.719Z,78.27
2018-12-05T04:00:26.171Z,78.24
2018-12-05T04:01:00.769Z,77.88
2018-12-05T04:01:35.397Z,77.68
2018-12-05T04:02:10.005Z,77.59
2018-12-05T04:02:44.689Z,77.19
2018-12-05T04:03:19.344Z,77.71
2018-12-05T04:03:54.024Z,77.16
2018-12-05T04:04:28.763Z,77.12
2018-12-05T04:05:03.836Z,76.58
2018-12-05T04:05:38.569Z,77.58
2018-12-05T04:06:13.188Z,77.30
2018-12-05T04:06:47.820Z,76.62
2018-12-05T04:07:23.269Z,76.88
2018-12-05T04:07:57.955Z,77.19
2018-12-05T04:08:32.573Z,76.98
2018-12-05T04:09:08.470Z,77.05
2018-12-05T04:09:45.033Z,77.12
2018-12-05T04:10:19.776Z,76.95
2018-12-05T04:10:54.545Z,77.57
2018-12-05T04:11:29.221Z,77.45
2018-12-05T04:12:03.838Z,77.14
2018-12-05T04:12:40.740Z,78.02
2018-12-05T04:13:15.125Z,77.75
2018-12-05T04:13:49.782Z,77.76
2018-12-05T04:14:24.519Z,78.13
2018-12-05T04:14:59.122Z,77.47
2018-12-05T04:15:34.042Z,78.52
2018-12-05T04:16:09.474Z,77.87
2018-12-05T04:16:44.129Z,77.52
2018-12-05T04:17:19.325Z,77.83
2018-12-05T04:17:54.366Z,77.75
2018-12-05T04:18:29.139Z,78.37
2018-12-05T04:19:04.187Z,77.85
2018-12-05T04:19:38.816Z,76.94
2018-12-05T04:20:13.420Z,77.64
2018-12-05T04:20:48.072Z,77.67
2018-12-05T04:21:22.818Z,77.73
2018-12-05T04:21:57.456Z,78.25
2018-12-05T04:22:32.051Z,77.80
2018-12-05T04:23:06.728Z,78.42
2018-12-05T04:23:41.843Z,77.99
2018-12-05T04:24:16.470Z,78.19
2018-12-05T04:24:51.091Z,77.47
2018-12-05T04:25:25.895Z,78.04
2018-12-05T04:26:00.510Z,78.01
2018-12-05T04:26:35.132Z,78.23
2018-12-05T04:27:09.758Z,77.25
2018-12-05T04:27:44.582Z,77.62
2018-12-05T04:28:19.302Z,77.22
2018-12-05T04:28:53.950Z,77.44
2018-12-05T04:29:28.692Z,78.19
2018-12-05T04:30:04.412Z,76.86
2018-12-05T04:30:39.374Z,76.88
2018-12-05T04:31:14.044Z,77.66
2018-12-05T04:31:48.706Z,77.73
2018-12-05T04:32:23.528Z,78.20
2018-12-05T04:32:58.661Z,77.49
2018-12-05T04:33:33.296Z,77.80
2018-12-05T04:34:07.967Z,77.85
2018-12-05T04:34:42.574Z,77.05
2018-12-05T04:35:17.239Z,77.08
2018-12-05T04:35:52.377Z,77.65
2018-12-05T04:36:27.109Z,76.99
2018-12-05T04:37:01.714Z,77.75
2018-12-05T04:37:36.330Z,78.41
2018-12-05T04:38:11.020Z,78.38
2018-12-05T04:38:45.735Z,77.39
2018-12-05T04:39:20.321Z,78.20
2018-12-05T04:39:55.075Z,78.53
2018-12-05T04:40:29.715Z,78.05
2018-12-05T04:41:04.462Z,77.10
2018-12-05T04:41:39.112Z,77.94
2018-12-05T04:42:13.808Z,77.51
2018-12-05T04:42:48.524Z,77.28
2018-12-05T04:43:23.363Z,77.75
2018-12-05T04:43:57.994Z,78.10
2018-12-05T04:44:32.915Z,76.96
2018-12-05T04:45:07.926Z,77.37
2018-12-05T04:45:42.635Z,78.24
2018-12-05T04:46:17.336Z,78.48
2018-12-05T04:46:52.416Z,78.38
2018-12-05T04:47:27.213Z,77.91
2018-12-05T04:48:02.163Z,77.90
2018-12-05T04:48:37.016Z,77.71
2018-12-05T04:49:11.752Z,78.23
2018-12-05T04:49:46.391Z,77.26
2018-12-05T04:50:20.991Z,78.39
2018-12-05T04:50:56.091Z,78.71
2018-12-05T04:51:30.738Z,78.01
2018-12-05T04:52:05.890Z,77.92
2018-12-05T04:52:40.509Z,78.38
2018-12-05T04:53:15.135Z,78.30
2018-12-05T04:53:49.777Z,78.73
2018-12-05T04:54:24.481Z,78.22
2018-12-05T04:54:59.151Z,78.04
2018-12-05T04:55:33.754Z,78.93
2018-12-05T04:56:08.577Z,78.39
2018-12-05T04:56:43.213Z,78.90
2018-12-05T04:57:17.881Z,78.30
2018-12-05T04:57:53.062Z,77.82
2018-12-05T04:58:28.053Z,77.83
2018-12-05T04:59:02.678Z,78.60
2018-12-05T04:59:37.309Z,78.75
2018-12-05T05:00:11.943Z,78.74
2018-12-05T05:00:46.549Z,78.92
2018-12-05T05:01:21.297Z,78.68
2018-12-05T05:01:56.216Z,78.05
2018-12-05T05:02:30.964Z,79.05
2018-12-05T05:03:05.690Z,78.63
2018-12-05T05:03:40.334Z,79.05
2018-12-05T05:04:14.948Z,78.46
2018-12-05T05:04:49.854Z,78.41
2018-12-05T05:05:24.554Z,78.48
2018-12-05T05:05:59.662Z,78.55
2018-12-05T05:06:41.430Z,78.54
2018-12-05T05:07:10.958Z,78.08
2018-12-05T05:07:45.716Z,77.82
2018-12-05T05:08:20.297Z,78.97
2018-12-05T05:08:55.081Z,78.53
2018-12-05T05:09:30.070Z,78.63
2018-12-05T05:10:05.616Z,77.92
2018-12-05T05:10:40.219Z,77.80
2018-12-05T05:11:14.818Z,77.87
2018-12-05T05:11:49.519Z,78.43
2018-12-05T05:12:24.542Z,78.52
2018-12-05T05:12:59.244Z,78.93
2018-12-05T05:13:33.849Z,77.82
2018-12-05T05:14:08.580Z,79.05
2018-12-05T05:14:43.208Z,78.54
2018-12-05T05:15:17.889Z,78.42
2018-12-05T05:15:52.877Z,77.59
2018-12-05T05:16:27.637Z,77.53
2018-12-05T05:17:02.291Z,78.19
2018-12-05T05:17:36.921Z,77.33
2018-12-05T05:18:11.533Z,77.37
2018-12-05T05:18:46.177Z,78.03
2018-12-05T05:19:20.822Z,77.41
2018-12-05T05:19:55.579Z,77.44
2018-12-05T05:20:30.444Z,77.65
2018-12-05T05:21:05.192Z,77.43
2018-12-05T05:21:39.798Z,78.71
2018-12-05T05:22:14.407Z,77.63
2018-12-05T05:22:49.715Z,77.65
2018-12-05T05:23:24.501Z,77.57
2018-12-05T05:23:59.216Z,77.94
2018-12-05T05:24:33.909Z,77.27
2018-12-05T05:25:08.545Z,78.04
2018-12-05T05:25:43.196Z,77.81
2018-12-05T05:26:17.939Z,77.23
2018-12-05T05:26:52.701Z,77.70
2018-12-05T05:27:27.493Z,78.01
2018-12-05T05:28:02.110Z,77.72
2018-12-05T05:28:36.816Z,77.15
2018-12-05T05:29:11.542Z,78.11
2018-12-05T05:29:46.165Z,77.57
2018-12-05T05:30:20.826Z,77.71
2018-12-05T05:30:55.725Z,78.08
2018-12-05T05:31:30.366Z,77.91
2018-12-05T05:32:05.424Z,77.29
2018-12-05T05:32:40.113Z,78.32
2018-12-05T05:33:14.983Z,77.43
2018-12-05T05:33:49.671Z,77.35
2018-12-05T05:34:24.371Z,77.67
2018-12-05T05:34:58.971Z,78.04
2018-12-05T05:35:33.595Z,77.85
2018-12-05T05:36:08.218Z,78.55
2018-12-05T05:36:42.878Z,77.99
2018-12-05T05:37:18.068Z,77.82
2018-12-05T05:37:54.126Z,77.12
2018-12-05T05:38:29.247Z,77.05
2018-12-05T05:39:07.660Z,77.87
2018-12-05T05:39:42.910Z,77.21
2018-12-05T05:40:18.352Z,76.76
2018-12-05T05:40:53.346Z,77.23
2018-12-05T05:41:29.123Z,77.23
2018-12-05T05:42:04.929Z,77.53
2018-12-05T05:42:40.838Z,77.70
2018-12-05T05:43:16.358Z,76.88
2018-12-05T05:43:51.902Z,77.57
2018-12-05T05:44:27.765Z,78.01
2018-12-05T05:45:03.250Z,77.22
2018-12-05T05:45:38.942Z,77.59
2018-12-05T05:46:15.247Z,77.41
2018-12-05T05:46:51.017Z,76.94
2018-12-05T05:47:26.760Z,77.08
2018-12-05T05:48:02.467Z,77.31
2018-12-05T05:48:37.993Z,76.86
2018-12-05T05:49:13.501Z,77.83
2018-12-05T05:49:48.987Z,77.33
2018-12-05T05:50:24.742Z,76.93
2018-12-05T05:50:59.652Z,77.74
2018-12-05T05:51:34.486Z,76.02
2018-12-05T05:52:09.092Z,76.76
2018-12-05T05:52:43.730Z,76.45
2018-12-05T05:53:18.313Z,76.81
2018-12-05T05:53:52.923Z,77.03
2018-12-05T05:54:27.606Z,77.08
2018-12-05T05:55:02.302Z,76.48
2018-12-05T05:55:36.900Z,76.51
2018-12-05T05:56:12.419Z,77.33
2018-12-05T05:56:47.842Z,77.34
2018-12-05T05:57:23.924Z,76.49
2018-12-05T05:57:59.795Z,76.55
2018-12-05T05:58:35.528Z,76.37
2018-12-05T05:59:11.007Z,76.96
2018-12-05T05:59:46.543Z,76.98
2018-12-05T06:00:21.667Z,77.19
2018-12-05T06:00:56.779Z,77.28
2018-12-05T06:01:32.682Z,76.81
2018-12-05T06:02:08.361Z,76.73
2018-12-05T06:02:43.282Z,76.20
2018-12-05T06:03:18.736Z,77.03
2018-12-05T06:03:53.869Z,76.14
2018-12-05T06:04:28.975Z,76.14
2018-12-05T06:05:04.460Z,76.69
2018-12-05T06:05:39.589Z,76.14
2018-12-05T06:06:14.214Z,76.33
2018-12-05T06:06:49.777Z,76.17
2018-12-05T06:07:24.929Z,77.45
2018-12-05T06:08:00.215Z,76.77
2018-12-05T06:08:35.565Z,77.17
2018-12-05T06:09:11.490Z,76.48
2018-12-05T06:09:46.942Z,76.42
2018-12-05T06:10:22.420Z,76.87
2018-12-05T06:10:58.083Z,76.68
2018-12-05T06:11:33.755Z,76.47
2018-12-05T06:12:09.386Z,76.84
2018-12-05T06:12:44.902Z,77.28
2018-12-05T06:13:20.443Z,76.26
2018-12-05T06:13:56.484Z,77.10
2018-12-05T06:14:32.321Z,77.38
2018-12-05T06:15:09.127Z,77.91
2018-12-05T06:15:44.668Z,77.74
2018-12-05T06:16:20.169Z,76.91
2018-12-05T06:16:55.780Z,77.55
2018-12-05T06:17:31.883Z,77.47
2018-12-05T06:18:07.519Z,77.77
2018-12-05T06:18:43.157Z,77.34
2018-12-05T06:19:18.778Z,76.80
2018-12-05T06:19:54.453Z,77.01
2018-12-05T06:20:29.789Z,76.69
2018-12-05T06:21:05.128Z,76.80
2018-12-05T06:21:40.666Z,77.25
2018-12-05T06:22:16.536Z,76.90
2018-12-05T06:22:51.866Z,78.21
2018-12-05T06:23:27.305Z,78.25
2018-12-05T06:24:03.362Z,78.25
2018-12-05T06:24:39.030Z,77.82
2018-12-05T06:25:14.281Z,78.33
2018-12-05T06:25:49.866Z,77.96
2018-12-05T06:26:25.405Z,78.71
2018-12-05T06:27:01.003Z,78.27
2018-12-05T06:27:36.610Z,76.97
2018-12-05T06:28:11.979Z,78.41
2018-12-05T06:28:47.420Z,77.20
2018-12-05T06:29:22.067Z,76.96
2018-12-05T06:29:56.731Z,77.42
2018-12-05T06:30:31.397Z,77.22
2018-12-05T06:31:06.126Z,77.32
2018-12-05T06:31:40.719Z,78.21
2018-12-05T06:32:15.324Z,78.60
2018-12-05T06:32:49.955Z,77.73
2018-12-05T06:33:24.555Z,78.78
2018-12-05T06:33:59.310Z,77.61
2018-12-05T06:34:34.137Z,77.87
2018-12-05T06:35:08.773Z,77.97
2018-12-05T06:35:43.382Z,78.01
2018-12-05T06:36:17.983Z,79.03
2018-12-05T06:36:52.596Z,78.64
2018-12-05T06:37:27.195Z,79.34
2018-12-05T06:38:01.889Z,78.67
2018-12-05T06:38:36.635Z,79.57
2018-12-05T06:39:11.330Z,79.49
2018-12-05T06:39:45.955Z,78.90
2018-12-05T06:40:20.667Z,78.84
2018-12-05T06:40:55.428Z,78.69
2018-12-05T06:41:30.109Z,78.76
2018-12-05T06:42:04.813Z,78.79
2018-12-05T06:42:39.516Z,78.03
2018-12-05T06:43:14.150Z,78.60
2018-12-05T06:43:48.752Z,79.16
2018-12-05T06:44:23.585Z,79.07
2018-12-05T06:44:58.322Z,77.88
2018-12-05T06:45:33.011Z,78.30
2018-12-05T06:46:07.652Z,78.55
2018-12-05T06:46:42.329Z,78.90
2018-12-05T06:47:16.977Z,78.69
2018-12-05T06:47:51.741Z,77.51
2018-12-05T06:48:26.426Z,78.28
2018-12-05T06:49:01.158Z,77.60
2018-12-05T06:49:35.837Z,77.34
2018-12-05T06:50:10.650Z,77.40
2018-12-05T06:50:45.269Z,77.32
2018-12-05T06:51:19.858Z,77.91
2018-12-05T06:51:54.614Z,77.53
2018-12-05T06:52:29.301Z,77.97
2018-12-05T06:53:03.914Z,78.14
2018-12-05T06:53:38.535Z,77.10
2018-12-05T06:54:13.177Z,76.85
2018-12-05T06:54:47.785Z,76.80
2018-12-05T06:55:22.502Z,77.46
2018-12-05T06:55:57.371Z,77.28
2018-12-05T06:56:32.018Z,76.75
2018-12-05T06:57:07.124Z,77.30
2018-12-05T06:57:41.728Z,77.76
2018-12-05T06:58:16.350Z,77.29
2018-12-05T06:58:50.983Z,77.05
2018-12-05T06:59:25.624Z,76.40
2018-12-05T07:00:00.766Z,77.03
2018-12-05T07:00:35.416Z,76.66
2018-12-05T07:01:10.006Z,77.10
2018-12-05T07:01:44.582Z,77.07
2018-12-05T07:02:19.181Z,76.92
2018-12-05T07:02:53.880Z,76.76
2018-12-05T07:03:28.556Z,77.61
2018-12-05T07:04:03.246Z,77.10
2018-12-05T07:04:37.965Z,76.52
2018-12-05T07:05:12.617Z,76.91
2018-12-05T07:05:47.220Z,76.85
2018-12-05T07:06:22.333Z,77.44
2018-12-05T07:06:56.994Z,77.65
2018-12-05T07:07:31.618Z,76.23
2018-12-05T07:08:06.350Z,76.92
2018-12-05T07:08:40.957Z,77.39
2018-12-05T07:09:15.568Z,77.50
2018-12-05T07:09:50.217Z,77.39
2018-12-05T07:10:24.959Z,76.71
2018-12-05T07:10:59.617Z,76.75
2018-12-05T07:11:34.269Z,76.23
2018-12-05T07:12:09.162Z,76.15
2018-12-05T07:12:43.875Z,76.58
2018-12-05T07:13:18.495Z,76.96
2018-12-05T07:13:53.286Z,76.80
2018-12-05T07:14:27.958Z,77.22
2018-12-05T07:15:02.692Z,76.08
2018-12-05T07:15:37.305Z,76.44
2018-12-05T07:16:12.378Z,76.19
2018-12-05T07:16:46.999Z,76.13
2018-12-05T07:17:21.672Z,76.30
2018-12-05T07:17:56.317Z,76.34
2018-12-05T07:18:30.967Z,76.22
2018-12-05T07:19:06.181Z,75.68
2018-12-05T07:19:40.781Z,76.27
2018-12-05T07:20:15.427Z,76.31
2018-12-05T07:20:50.007Z,75.72
2018-12-05T07:21:24.916Z,76.29
2018-12-05T07:21:59.622Z,75.92
2018-12-05T07:22:34.290Z,75.82
2018-12-05T07:23:08.998Z,75.59
2018-12-05T07:23:43.636Z,75.14
2018-12-05T07:24:18.225Z,75.59
2018-12-05T07:24:52.914Z,75.14
2018-12-05T07:25:27.686Z,75.09
2018-12-05T07:26:02.320Z,75.40
2018-12-05T07:26:36.941Z,75.17
2018-12-05T07:27:11.547Z,74.58
2018-12-05T07:27:46.168Z,75.07
2018-12-05T07:28:20.860Z,74.92
2018-12-05T07:28:55.561Z,75.54
2018-12-05T07:29:30.311Z,75.88